x

Central Dixon Entrance Buoy (46145) Wave Buoy

9:00pm - Wed 23rd Aug 2017 All times are PDT. -7 hours from GMT.

  • Sig Wave height 4.3ft
  • Peak Period 10s
  • Wind
    11mph, 13mph gusts
  • Sea Temp 54°f
  • Air Temp 55°f
  • Sea Pressure 1010mb
  • Central Dixon Entrance Buoy
  • Central Dixon Entrance Buoy

More Historic Weather Station data

Upgrade to MSW Pro to gain access to the past 30 days of data for over 8000 Wavebouys and Weather Stations around the globe.

Join

Comparision Forecast

View Surf forecast
   
Wed 08/23 9:00pm 4.5ft 10s 11 13 mph 1010mb 54f 55f
8:00pm 4.5ft 10s 9 11 mph 1009.8mb 54f 55f
7:00pm 4.5ft 11s 13 16 mph 1009.6mb 53f 55f
6:00pm 5ft 12s 11 13 mph 1009.6mb 53f 55f
5:00pm 5ft 11s 13 16 mph 1009.6mb 53f 55f
4:00pm 5ft 10s 16 18 mph 1009.5mb 53f 55f
3:00pm 5.5ft 11s 9 13 mph 1009.8mb 53f 55f
2:00pm 5.5ft 10s 13 18 mph 1010mb 53f 54f
1:00pm 6ft 11s 13 16 mph 1010.3mb 53f 55f
12:00pm 7ft 11s 18 25 mph 1010.4mb 54f 54f
11:00am 7ft 10s 18 22 mph 1010.2mb 54f 54f
10:00am 6.5ft 10s 22 29 mph 1009.6mb 54f 55f
9:00am 6ft 11s 22 29 mph 1009.6mb 54f 55f
8:00am 5ft 11s 25 31 mph 1009.5mb 54f 55f
7:00am 5ft 9s 25 29 mph 1009.8mb 54f 55f
6:00am 4ft 10s 25 29 mph 1010mb 54f 55f
5:00am 4ft 9s 20 25 mph 1010.6mb 54f 55f
4:00am 4ft 8s 13 18 mph 1011.1mb 54f 54f
3:00am 3.5ft 8s 16 20 mph 1011.3mb 54f 54f
2:00am 3.5ft 8s 16 20 mph 1011.5mb 54f 55f
1:00am 3ft 8s 16 18 mph 1011.7mb 54f 55f
12:00am 3ft 8s 13 18 mph 1011.8mb 54f 55f
Tue 08/22 11:00pm 2.5ft 7s 11 13 mph 1012mb 54f 56f
10:00pm 3ft 8s 9 11 mph 1012.3mb 54f 55f
9:00pm 3ft 8s 9 11 mph 1012.1mb 54f 55f
8:00pm 2.5ft 8s 9 13 mph 1012.1mb 55f 56f
7:00pm 3ft 8s 4 4 mph 1012.1mb 55f 56f
6:00pm 2.5ft 10s 7 9 mph 1011.6mb 55f 56f
5:00pm 3.5ft 9s 11 13 mph 1011mb 55f 56f
4:00pm 3.5ft 9s 11 16 mph 1010.9mb 55f 56f
3:00pm 3.5ft 9s 9 11 mph 1010.9mb 55f 56f
2:00pm 4ft 9s 7 9 mph 1010.7mb 54f 56f
1:00pm 3.5ft 9s 7 7 mph 1010.5mb 54f 55f
12:00pm 3.5ft 9s 2 2 mph 1010.4mb 54f 55f
11:00am 3.5ft 8s 2 2 mph 1010.4mb 54f 55f
10:00am 4.5ft 8s 2 4 mph 1010.2mb 54f 55f
9:00am 4.5ft 9s 7 9 mph 1010.3mb 54f 55f
8:00am 4.5ft 9s 9 11 mph 1009.7mb 54f 56f
7:00am 4.5ft 10s 11 16 mph 1009.4mb 55f 56f
6:00am 4.5ft 8s 13 16 mph 1009.2mb 54f 56f
5:00am 5ft 6s 16 18 mph 1009.5mb 54f 56f
4:00am 5ft 8s 20 22 mph 1009.6mb 54f 57f
3:00am 5ft 5s 22 27 mph 1009.7mb 54f 57f
2:00am 4ft 5s 16 18 mph 1010.3mb 55f 57f
1:00am 3.5ft 7s 13 18 mph 1011.1mb 55f 57f
12:00am 3.5ft 7s 18 22 mph 1011.5mb 55f 57f
Mon 08/21 11:00pm 3.5ft 5s 18 22 mph 1012mb 55f 57f
10:00pm 3.5ft 7s 18 20 mph 1012.1mb 55f 57f
9:00pm 4ft 5s 18 22 mph 1012.3mb 55f 58f
8:00pm 3.5ft 7s 13 16 mph 1012.9mb 55f 58f
7:00pm 3.5ft 5s 13 18 mph 1013.3mb 55f 58f
6:00pm 3.5ft 8s 13 16 mph 1013.4mb 55f 58f
5:00pm 3.5ft 5s 11 13 mph 1013.5mb 55f 58f
4:00pm 4ft 8s 11 13 mph 1013.6mb 54f 58f
3:00pm 3.5ft 8s 16 18 mph 1013.6mb 55f 60f
2:00pm 3ft 8s 11 16 mph 1013.4mb 55f 58f
1:00pm 3ft 8s 11 13 mph 1013.4mb 55f 58f
12:00pm 2.5ft 8s 9 9 mph 1013.2mb 55f 58f
11:00am 2.5ft 8s 9 11 mph 1013.2mb 54f 57f
10:00am 3ft 7s 13 16 mph 1012.8mb 54f 57f
9:00am 3ft 8s 13 18 mph 1012.8mb 54f 57f
8:00am 3ft 8s 13 16 mph 1012.9mb 54f 56f
7:00am 3ft 9s 9 11 mph 1012.9mb 54f 56f
6:00am 2.5ft 8s 9 11 mph 1013mb 54f 56f
5:00am 3ft 8s 11 13 mph 1012.9mb 54f 56f
4:00am 3.5ft 8s 11 11 mph 1013mb 55f 56f
3:00am 3.5ft 8s 11 13 mph 1012.8mb 54f 56f
2:00am 3.5ft 8s 13 13 mph 1013mb 55f 56f
1:00am 3ft 8s 13 16 mph 1013.2mb 55f 56f
12:00am 3ft 9s 16 18 mph 1013.2mb 55f 56f
Sun 08/20 11:00pm 3ft 9s 13 16 mph 1013.4mb 54f 56f
10:00pm 2.5ft 9s 11 13 mph 1013.7mb 54f 56f
9:00pm 3ft 9s 13 13 mph 1013.2mb 54f 56f
8:00pm 3.5ft 10s 11 11 mph 1013.8mb 54f 56f
7:00pm 3ft 10s 7 9 mph 1014.2mb 54f 56f
6:00pm 3ft 10s 7 7 mph 1014.6mb 54f 57f
5:00pm 3ft 10s 2 4 mph 1014.9mb 54f 56f
4:00pm 3ft 11s 2 4 mph 1014.3mb 54f 56f
3:00pm 3.5ft 10s 4 4 mph 1014.6mb 54f 55f
2:00pm 4ft 10s 9 9 mph 1014.5mb 54f 55f
1:00pm 4ft 10s 9 11 mph 1014.1mb 54f 55f
12:00pm 4ft 8s 13 16 mph 1013.9mb 54f 54f
11:00am 4ft 9s 16 18 mph 1013.9mb 54f 54f
10:00am 4ft 9s 18 22 mph 1013.8mb 54f 54f
9:00am 4ft 9s 18 22 mph 1014.1mb 54f 54f
8:00am 4.5ft 9s 20 22 mph 1014mb 54f 54f
7:00am 4.5ft 10s 20 22 mph 1014mb 54f 54f
6:00am 4.5ft 10s 20 22 mph 1014.1mb 54f 54f